»·PEaware :: SKY585 KSBP-KOAR

SKY585 :: KSBP-KOAR

FLIGHT INFORMATION

Flight Status: Arrived
Operator:
Skymark Airlines
More flights by this operator :: More flights under this callsign
Pilot: Mark L. (17179)
Aircraft: BEECH AIRCRAFT BARON
(BE58)
More flights by this aircraft type
Origin: KSBP San Luis Co Regl
United States
Destination: KOAR Marina
United States
More flights between these airports :: More routes between these airports
Route: CREPE3 PRB V248 SARDO ZURET
File this flight plan on PilotEdge
Remarks: SKY 4 Rating Request
Altitude:
(Current/Filed)
8,000ft
Speed:
(Current/Filed)
180kts
Departed: 08-Oct-18 08:24 AM
Arrived: 08-Oct-18 09:09 AM
Distance/Time
Traveled:
102nm/0:45
Distance/Time
To Go:
Arrived

Flight Plot

Page will automatically refresh every two minutes.

Flight plan parsing failed; only flown route is shown


Map Options




Map Legend


Flown Route
Filed Route
Departure Airport
Arrival Airport
Navaid (VOR, NDB)
Fix

Horizontal Profiles

Position Reports

Time Latitude Longitude Heading Altitude Ground
Speed
08-Oct-18 08:10 35.234345 -120.632954 126 213ft 0kts
08-Oct-18 08:11 35.234345 -120.632954 126 213ft 0kts
08-Oct-18 08:12 35.234345 -120.632954 126 213ft 0kts
08-Oct-18 08:13 35.234345 -120.632954 126 213ft 0kts
08-Oct-18 08:14 35.234345 -120.632954 126 213ft 0kts
08-Oct-18 08:15 35.234345 -120.632954 126 213ft 0kts
08-Oct-18 08:16 35.234345 -120.632954 126 213ft 0kts
08-Oct-18 08:17 35.234345 -120.632954 126 213ft 0kts
08-Oct-18 08:18 35.234345 -120.632954 126 213ft 0kts
08-Oct-18 08:19 35.234345 -120.632954 126 213ft 0kts
08-Oct-18 08:20 35.234345 -120.632954 126 213ft 0kts
08-Oct-18 08:21 35.234352 -120.633233 254 212ft 0kts
08-Oct-18 08:22 35.233948 -120.633152 123 211ft 4kts
08-Oct-18 08:23 35.233226 -120.632410 208 212ft 0kts
08-Oct-18 08:24 35.233226 -120.632410 208 212ft 0kts
08-Oct-18 08:25 35.233226 -120.632410 208 212ft 0kts
08-Oct-18 08:26 35.242272 -120.649261 304 518ft 133kts
08-Oct-18 08:27 35.262041 -120.686007 307 2202ft 128kts
08-Oct-18 08:28 35.282891 -120.720555 305 3764ft 126kts
08-Oct-18 08:29 35.302826 -120.755427 305 5066ft 138kts
08-Oct-18 08:30 35.328807 -120.801418 305 5008ft 178kts
08-Oct-18 08:31 35.358408 -120.851680 328 4988ft 184kts
08-Oct-18 08:32 35.404695 -120.832539 29 5100ft 180kts
08-Oct-18 08:33 35.445208 -120.802167 30 5723ft 167kts
08-Oct-18 08:34 35.484590 -120.772020 30 6283ft 167kts
08-Oct-18 08:35 35.523835 -120.741843 30 6836ft 166kts
08-Oct-18 08:36 35.563120 -120.711588 30 7377ft 166kts
08-Oct-18 08:37 35.602411 -120.681290 30 7915ft 169kts
08-Oct-18 08:38 35.644266 -120.648984 30 7992ft 186kts
08-Oct-18 08:39 35.691623 -120.635906 344 7992ft 187kts
08-Oct-18 08:40 35.741282 -120.654724 342 7989ft 185kts
08-Oct-18 08:41 35.789929 -120.674027 342 7990ft 184kts
08-Oct-18 08:42 35.838533 -120.693442 342 7990ft 184kts
08-Oct-18 08:43 35.887069 -120.712865 342 7989ft 183kts
08-Oct-18 08:44 35.935654 -120.732334 342 7989ft 183kts
08-Oct-18 08:45 35.981896 -120.750888 342 7989ft 183kts
08-Oct-18 08:46 36.030493 -120.770412 342 7989ft 183kts
08-Oct-18 08:47 36.079036 -120.789940 342 7989ft 184kts
08-Oct-18 08:48 36.117201 -120.830766 315 7991ft 185kts
08-Oct-18 08:49 36.153408 -120.876180 315 7991ft 186kts
08-Oct-18 08:50 36.189700 -120.921718 315 7991ft 186kts
08-Oct-18 08:51 36.226016 -120.967347 316 7991ft 186kts
08-Oct-18 08:52 36.261909 -121.012555 317 7986ft 185kts
08-Oct-18 08:53 36.298040 -121.058087 318 7981ft 185kts
08-Oct-18 08:54 36.334154 -121.103651 319 8003ft 186kts
08-Oct-18 08:55 36.370766 -121.149895 320 7997ft 190kts
08-Oct-18 08:56 36.408439 -121.197514 320 7254ft 193kts
08-Oct-18 08:57 36.446131 -121.245214 319 6226ft 194kts
08-Oct-18 08:58 36.482215 -121.291070 319 6077ft 180kts
08-Oct-18 08:59 36.516425 -121.336240 309 5963ft 186kts
08-Oct-18 09:00 36.546945 -121.391431 306 4638ft 191kts
08-Oct-18 09:01 36.571022 -121.435145 306 4728ft 121kts
08-Oct-18 09:02 36.591042 -121.471254 305 4332ft 131kts
08-Oct-18 09:03 36.610672 -121.506888 304 3813ft 116kts
08-Oct-18 09:04 36.629435 -121.540872 304 3343ft 121kts
08-Oct-18 09:05 36.648306 -121.575152 303 2929ft 114kts
08-Oct-18 09:06 36.665505 -121.606690 295 2862ft 107kts
08-Oct-18 09:07 36.668044 -121.645366 273 2646ft 116kts
08-Oct-18 09:08 36.672084 -121.687311 274 1977ft 120kts
08-Oct-18 09:09 36.676577 -121.725495 282 619ft 106kts
08-Oct-18 09:10 36.674137 -121.756724 288 243ft 84kts
08-Oct-18 09:11 36.683080 -121.767210 193 135ft 2kts
08-Oct-18 09:12 36.682516 -121.767271 204 136ft 5kts
08-Oct-18 09:13 36.681907 -121.767112 125 137ft 0kts
08-Oct-18 09:14 36.681905 -121.767107 125 137ft 0kts
08-Oct-18 09:15 36.678757 -121.761894 118 135ft 17kts
08-Oct-18 09:16 36.678474 -121.760497 73 135ft 0kts
08-Oct-18 09:17 36.678474 -121.760497 73 135ft 0kts

Navigation Log

Ident Type
Flight plan parsing failed, navigation log unavailable